»·PEaware :: N143VT KLGB-KBFL

N143VT :: KLGB-KBFL

FLIGHT INFORMATION

Flight Status: Arrived
Operator: Privately registered:
United States
More flights under this callsign
Pilot: Anonymous 16492 (16492)
Aircraft: Unknown
(EPIC)
More flights by this aircraft type
Origin: KLGB Long Beach
United States
Destination: KBFL Meadows
United States
More flights between these airports :: More routes between these airports
Route: +SLI V459 LHS FASTO2
File this flight plan on PilotEdge
Remarks:
Altitude:
(Current/Filed)
10,000ft
Speed:
(Current/Filed)
330kts
Departed: 28-Aug-18 05:44 PM
Arrived: 28-Aug-18 06:47 PM
Distance/Time
Traveled:
107nm/1:03
Distance/Time
To Go:
Arrived

Flight Plot

Page will automatically refresh every two minutes.

Flight plan parsing failed; only flown route is shown


Map Options




Map Legend


Flown Route
Filed Route
Departure Airport
Arrival Airport
Navaid (VOR, NDB)
Fix

Horizontal Profiles

Position Reports

Time Latitude Longitude Heading Altitude Ground
Speed
28-Aug-18 17:27 33.812151 -118.151167 357 64ft 0kts
28-Aug-18 17:28 33.812151 -118.151167 357 64ft 0kts
28-Aug-18 17:29 33.812151 -118.151167 357 64ft 0kts
28-Aug-18 17:30 33.812151 -118.151167 357 64ft 0kts
28-Aug-18 17:31 33.812151 -118.151167 357 64ft 0kts
28-Aug-18 17:32 33.812151 -118.151167 357 64ft 0kts
28-Aug-18 17:33 33.812151 -118.151167 357 64ft 0kts
28-Aug-18 17:34 33.812151 -118.151167 357 64ft 0kts
28-Aug-18 17:35 33.812151 -118.151167 357 64ft 0kts
28-Aug-18 17:36 33.812151 -118.151167 357 64ft 0kts
28-Aug-18 17:37 33.812151 -118.151167 357 64ft 0kts
28-Aug-18 17:38 33.812151 -118.151167 357 64ft 0kts
28-Aug-18 17:39 33.812151 -118.151167 357 64ft 0kts
28-Aug-18 17:40 33.812360 -118.151172 359 64ft 8kts
28-Aug-18 17:41 33.813103 -118.148089 85 64ft 12kts
28-Aug-18 17:42 33.809169 -118.142550 133 64ft 27kts
28-Aug-18 17:43 33.806473 -118.139197 106 64ft 0kts
28-Aug-18 17:44 33.806709 -118.138555 34 64ft 14kts
28-Aug-18 17:45 33.827081 -118.163494 307 614ft 174kts
28-Aug-18 17:46 33.815821 -118.207475 211 1919ft 184kts
28-Aug-18 17:47 33.777073 -118.234447 211 4924ft 153kts
28-Aug-18 17:48 33.737264 -118.260814 211 7018ft 209kts
28-Aug-18 17:49 33.679537 -118.255405 114 7020ft 275kts
28-Aug-18 17:50 33.685753 -118.167503 81 7006ft 263kts
28-Aug-18 17:51 33.697414 -118.082024 81 7000ft 257kts
28-Aug-18 17:52 33.708522 -118.001806 70 6997ft 255kts
28-Aug-18 17:53 33.761425 -118.000362 317 6989ft 234kts
28-Aug-18 17:54 33.807585 -118.053661 314 6979ft 236kts
28-Aug-18 17:55 33.855430 -118.092704 325 8644ft 188kts
28-Aug-18 17:56 33.905851 -118.124554 329 9983ft 241kts
28-Aug-18 17:57 33.965328 -118.159327 330 9980ft 228kts
28-Aug-18 17:58 34.019244 -118.190520 330 9984ft 218kts
28-Aug-18 17:59 34.073161 -118.221691 329 9986ft 214kts
28-Aug-18 18:00 34.125448 -118.251908 329 10341ft 194kts
28-Aug-18 18:01 34.177564 -118.282126 329 10005ft 212kts
28-Aug-18 18:02 34.230605 -118.312880 329 10007ft 212kts
28-Aug-18 18:03 34.283300 -118.343498 329 10015ft 217kts
28-Aug-18 18:04 34.338683 -118.375816 332 10025ft 224kts
28-Aug-18 18:05 34.393770 -118.407793 331 10026ft 220kts
28-Aug-18 18:06 34.448788 -118.439861 331 10024ft 220kts
28-Aug-18 18:07 34.503896 -118.472053 331 10026ft 220kts
28-Aug-18 18:08 34.558854 -118.504215 331 10035ft 220kts
28-Aug-18 18:09 34.614265 -118.536651 329 9995ft 225kts
28-Aug-18 18:10 34.670872 -118.569898 329 9993ft 227kts
28-Aug-18 18:11 34.720077 -118.615094 316 10011ft 221kts
28-Aug-18 18:12 34.763882 -118.659595 316 10054ft 219kts
28-Aug-18 18:13 34.808299 -118.704950 316 10086ft 219kts
28-Aug-18 18:14 34.854564 -118.752180 316 10105ft 219kts
28-Aug-18 18:15 34.901060 -118.799626 316 10110ft 220kts
28-Aug-18 18:16 34.948162 -118.847690 316 10144ft 222kts
28-Aug-18 18:17 35.008887 -118.861403 358 10130ft 235kts
28-Aug-18 18:18 35.074071 -118.861416 358 10110ft 237kts
28-Aug-18 18:19 35.139327 -118.861431 358 10056ft 239kts
28-Aug-18 18:20 35.205357 -118.861449 358 10003ft 239kts
28-Aug-18 18:21 35.265347 -118.878597 293 9728ft 243kts
28-Aug-18 18:22 35.243718 -118.956848 242 8297ft 269kts
28-Aug-18 18:23 35.211823 -119.030828 240 7634ft 201kts
28-Aug-18 18:24 35.178625 -119.012319 72 5803ft 208kts
28-Aug-18 18:25 35.203551 -118.950997 62 4507ft 204kts
28-Aug-18 18:26 35.228763 -118.889495 62 4499ft 201kts
28-Aug-18 18:27 35.262665 -118.845687 343 4305ft 202kts
28-Aug-18 18:28 35.311487 -118.887739 324 2856ft 225kts
28-Aug-18 18:29 35.347019 -118.931004 312 2519ft 136kts
28-Aug-18 18:30 35.365454 -118.969771 306 2177ft 139kts
28-Aug-18 18:31 35.385959 -118.998334 316 1724ft 102kts
28-Aug-18 18:32 35.404444 -119.020752 315 1236ft 86kts
28-Aug-18 18:33 35.421450 -119.041213 313 765ft 78kts
28-Aug-18 18:34 35.436910 -119.060013 314 512ft 119kts
28-Aug-18 18:35 35.468863 -119.085561 26 2826ft 150kts
28-Aug-18 18:36 35.467135 -119.047072 146 2018ft 137kts
28-Aug-18 18:37 35.436482 -119.017778 149 1603ft 151kts
28-Aug-18 18:38 35.420447 -119.039776 310 994ft 107kts
28-Aug-18 18:39 35.439379 -119.062870 313 526ft 141kts
28-Aug-18 18:40 35.474070 -119.076452 43 1402ft 176kts
28-Aug-18 18:41 35.462980 -119.029091 146 1608ft 173kts
28-Aug-18 18:42 35.424378 -119.014478 243 1617ft 140kts
28-Aug-18 18:43 35.427114 -119.048101 315 651ft 114kts
28-Aug-18 18:44 35.449658 -119.075902 317 897ft 143kts
28-Aug-18 18:45 35.477594 -119.052363 102 1646ft 168kts
28-Aug-18 18:46 35.440898 -119.016911 151 1526ft 174kts
28-Aug-18 18:47 35.417897 -119.038202 315 1106ft 110kts
28-Aug-18 18:48 35.435794 -119.058138 5 509ft 31kts
28-Aug-18 18:49 35.436078 -119.056660 133 509ft 18kts
28-Aug-18 18:50 35.434056 -119.054221 133 509ft 0kts
28-Aug-18 18:51 35.434056 -119.054221 135 505ft 0kts

Navigation Log

Ident Type
Flight plan parsing failed, navigation log unavailable